createdAt,value
2022-12-23T00:00:19.228Z,49.83
2022-12-23T00:01:23.335Z,49.75
2022-12-23T00:02:27.821Z,49.59
2022-12-23T00:03:32.661Z,49.69
2022-12-23T00:04:36.888Z,49.3
2022-12-23T00:05:41.155Z,49.18
2022-12-23T00:06:45.271Z,49.27
2022-12-23T00:07:49.462Z,48.68
2022-12-23T00:08:53.591Z,49.05
2022-12-23T00:09:57.724Z,49.14
2022-12-23T00:11:01.857Z,48.9
2022-12-23T00:12:05.976Z,49.1
2022-12-23T00:13:10.083Z,48.96
2022-12-23T00:14:23.148Z,49.16
2022-12-23T00:15:27.239Z,49.37
2022-12-23T00:16:31.633Z,49.41
2022-12-23T00:17:35.754Z,49.58
2022-12-23T00:18:39.870Z,49.41
2022-12-23T00:19:45.099Z,49.48
2022-12-23T00:20:49.221Z,49.49
2022-12-23T00:21:53.334Z,49.5
2022-12-23T00:22:57.457Z,49.01
2022-12-23T00:24:01.593Z,48.86
2022-12-23T00:25:05.745Z,49.46
2022-12-23T00:26:09.840Z,49.03
2022-12-23T00:27:13.925Z,49.02
2022-12-23T00:28:18.106Z,49.25
2022-12-23T00:29:22.230Z,49.12
2022-12-23T00:30:26.359Z,49.27
2022-12-23T00:31:30.795Z,49.42
2022-12-23T00:32:34.929Z,49.07
2022-12-23T00:33:39.056Z,49.5
2022-12-23T00:34:43.181Z,48.85
2022-12-23T00:35:47.589Z,49.44
2022-12-23T00:36:52.079Z,49.27
2022-12-23T00:37:56.198Z,49
2022-12-23T00:39:00.342Z,49.24
2022-12-23T00:40:08.603Z,49.19
2022-12-23T00:41:12.768Z,49.31
2022-12-23T00:42:16.907Z,49.45
2022-12-23T00:43:21.015Z,49.32
2022-12-23T00:44:25.138Z,49.04
2022-12-23T00:45:29.444Z,48.92
2022-12-23T00:46:33.900Z,48.84
2022-12-23T00:47:38.074Z,48.84
2022-12-23T00:48:42.171Z,49.56
2022-12-23T00:49:46.524Z,49.4
2022-12-23T00:50:50.819Z,48.93
2022-12-23T00:51:55.076Z,49.03
2022-12-23T00:52:59.177Z,48.96
2022-12-23T00:54:03.322Z,48.98
2022-12-23T00:55:07.438Z,48.94
2022-12-23T00:56:11.559Z,49
2022-12-23T00:57:15.701Z,49.27
2022-12-23T00:58:19.783Z,49.3
2022-12-23T00:59:23.912Z,49.01
2022-12-23T01:00:28.022Z,49.1
2022-12-23T01:01:32.828Z,49.4
2022-12-23T01:02:37.363Z,49.21
2022-12-23T01:03:41.810Z,49.16
2022-12-23T01:04:45.949Z,48.97
2022-12-23T01:05:50.066Z,48.92
2022-12-23T01:06:54.172Z,48.7
2022-12-23T01:07:58.310Z,48.74
2022-12-23T01:09:02.468Z,48.63
2022-12-23T01:10:06.709Z,48.91
2022-12-23T01:11:10.806Z,48.76
2022-12-23T01:12:15.089Z,48.9
2022-12-23T01:13:19.179Z,49.06
2022-12-23T01:14:23.286Z,49.09
2022-12-23T01:15:27.429Z,48.77
2022-12-23T01:16:31.844Z,48.86
2022-12-23T01:17:36.013Z,48.68
2022-12-23T01:18:40.109Z,48.58
2022-12-23T01:19:44.200Z,49.07
2022-12-23T01:20:48.291Z,48.75
2022-12-23T01:21:52.398Z,48.79
2022-12-23T01:22:56.515Z,48.68
2022-12-23T01:24:00.613Z,48.99
2022-12-23T01:25:04.768Z,48.85
2022-12-23T01:26:08.895Z,48.71
2022-12-23T01:27:13.004Z,48.86
2022-12-23T01:28:17.125Z,48.92
2022-12-23T01:29:21.219Z,48.96
2022-12-23T01:30:25.378Z,48.85
2022-12-23T01:31:29.699Z,49.04
2022-12-23T01:32:33.861Z,48.76
2022-12-23T01:33:38.000Z,48.87
2022-12-23T01:34:42.136Z,48.99
2022-12-23T01:35:46.274Z,48.85
2022-12-23T01:36:50.503Z,48.78
2022-12-23T01:37:54.614Z,48.69
2022-12-23T01:38:58.719Z,48.6
2022-12-23T01:40:02.920Z,48.67
2022-12-23T01:41:07.035Z,48.83
2022-12-23T01:42:11.131Z,48.74
2022-12-23T01:43:15.250Z,48.59
2022-12-23T01:44:19.404Z,48.59
2022-12-23T01:45:23.550Z,48.67
2022-12-23T01:46:28.021Z,48.57
2022-12-23T01:47:32.186Z,48.67
2022-12-23T01:48:36.291Z,48.76
2022-12-23T01:49:40.419Z,48.59
2022-12-23T01:50:44.603Z,48.64
2022-12-23T01:51:48.764Z,48.65
2022-12-23T01:52:52.931Z,48.63
2022-12-23T01:53:57.029Z,48.56
2022-12-23T01:55:01.192Z,48.61
2022-12-23T01:56:05.293Z,48.71
2022-12-23T01:57:09.418Z,48.63
2022-12-23T01:58:13.528Z,48.75
2022-12-23T01:59:17.617Z,48.53
2022-12-23T02:00:21.725Z,48.73
2022-12-23T02:01:26.322Z,48.66
2022-12-23T02:02:31.009Z,48.57
2022-12-23T02:03:35.405Z,48.41
2022-12-23T02:04:39.559Z,48.37
2022-12-23T02:05:43.677Z,48.49
2022-12-23T02:06:47.778Z,48.82
2022-12-23T02:07:51.946Z,48.53
2022-12-23T02:08:56.055Z,48.44
2022-12-23T02:10:00.186Z,48.65
2022-12-23T02:11:04.303Z,48.48
2022-12-23T02:12:08.587Z,48.5
2022-12-23T02:13:12.694Z,48.48
2022-12-23T02:14:16.805Z,48.47
2022-12-23T02:15:20.898Z,48.5
2022-12-23T02:16:25.179Z,48.55
2022-12-23T02:17:29.321Z,48.62
2022-12-23T02:18:33.405Z,48.59
2022-12-23T02:19:37.572Z,48.63
2022-12-23T02:20:41.675Z,48.59
2022-12-23T02:21:46.014Z,48.61
2022-12-23T02:22:50.172Z,48.56
2022-12-23T02:23:54.273Z,48.67
2022-12-23T02:24:58.369Z,48.67
2022-12-23T02:26:02.490Z,48.61
2022-12-23T02:27:06.661Z,48.63
2022-12-23T02:28:10.784Z,48.59
2022-12-23T02:29:14.933Z,48.54
2022-12-23T02:30:19.029Z,48.54
2022-12-23T02:31:23.488Z,48.74
2022-12-23T02:32:27.785Z,48.62
2022-12-23T02:33:31.931Z,48.68
2022-12-23T02:34:36.041Z,48.63
2022-12-23T02:35:40.141Z,48.58
2022-12-23T02:36:44.247Z,48.77
2022-12-23T02:37:48.362Z,48.71
2022-12-23T02:38:52.498Z,48.73
2022-12-23T02:39:56.584Z,48.68
2022-12-23T02:41:00.695Z,48.53
2022-12-23T02:42:04.827Z,48.81
2022-12-23T02:43:08.942Z,48.67
2022-12-23T02:44:13.048Z,48.67
2022-12-23T02:45:17.133Z,48.79
2022-12-23T02:46:21.405Z,48.64
2022-12-23T02:47:25.556Z,48.51
2022-12-23T02:48:29.708Z,48.69
2022-12-23T02:49:33.789Z,48.86
2022-12-23T02:50:37.894Z,48.62
2022-12-23T02:51:41.968Z,48.49
2022-12-23T02:52:46.074Z,48.56
2022-12-23T02:53:50.186Z,48.61
2022-12-23T02:54:54.339Z,48.58
2022-12-23T02:55:58.445Z,48.75
2022-12-23T02:57:02.549Z,48.62
2022-12-23T02:58:06.657Z,48.53
2022-12-23T02:59:10.772Z,48.59
2022-12-23T03:00:14.910Z,48.57
2022-12-23T03:01:19.216Z,48.47
2022-12-23T03:02:24.098Z,48.56
2022-12-23T03:03:28.470Z,48.66
2022-12-23T03:04:32.599Z,48.68
2022-12-23T03:05:36.966Z,48.62
2022-12-23T03:06:41.105Z,48.53
2022-12-23T03:07:45.217Z,48.48
2022-12-23T03:08:49.336Z,48.61
2022-12-23T03:09:53.455Z,48.6
2022-12-23T03:10:57.568Z,48.57
2022-12-23T03:12:01.705Z,48.65
2022-12-23T03:13:05.856Z,48.59
2022-12-23T03:14:09.993Z,48.54
2022-12-23T03:15:14.118Z,48.58
2022-12-23T03:16:18.476Z,48.46
2022-12-23T03:17:22.606Z,48.47
2022-12-23T03:18:26.721Z,48.48
2022-12-23T03:19:30.812Z,48.51
2022-12-23T03:20:34.928Z,48.33
2022-12-23T03:21:39.117Z,48.54
2022-12-23T03:22:43.270Z,48.56
2022-12-23T03:23:56.489Z,48.66
2022-12-23T03:25:00.609Z,48.58
2022-12-23T03:26:04.785Z,48.79
2022-12-23T03:27:08.872Z,48.48
2022-12-23T03:28:13.019Z,48.54
2022-12-23T03:29:17.156Z,48.66
2022-12-23T03:30:21.318Z,48.66
2022-12-23T03:31:25.785Z,48.64
2022-12-23T03:32:29.947Z,48.51
2022-12-23T03:33:34.045Z,48.54
2022-12-23T03:34:38.260Z,48.58
2022-12-23T03:35:42.368Z,48.49
2022-12-23T03:36:46.473Z,48.58
2022-12-23T03:37:50.568Z,48.11
2022-12-23T03:38:54.676Z,48.57
2022-12-23T03:39:58.770Z,48.58
2022-12-23T03:41:02.863Z,48.59
2022-12-23T03:42:07.013Z,48.62
2022-12-23T03:43:11.128Z,48.8
2022-12-23T03:44:15.245Z,48.64
2022-12-23T03:45:42.328Z,48.57
2022-12-23T03:46:46.566Z,48.51
2022-12-23T03:47:50.663Z,48.34
2022-12-23T03:48:54.754Z,48.3
2022-12-23T03:49:58.844Z,48.24
2022-12-23T03:51:02.970Z,48.16
2022-12-23T03:52:07.086Z,48.05
2022-12-23T03:53:11.172Z,47.99
2022-12-23T03:54:15.255Z,47.88
2022-12-23T03:55:19.351Z,47.94
2022-12-23T03:56:23.472Z,47.97
2022-12-23T03:57:27.569Z,47.83
2022-12-23T03:58:31.707Z,47.81
2022-12-23T03:59:35.809Z,47.8
2022-12-23T04:00:39.905Z,47.86
2022-12-23T04:01:44.436Z,47.81
2022-12-23T04:02:49.149Z,47.66
2022-12-23T04:03:53.455Z,47.68
2022-12-23T04:04:57.598Z,47.55
2022-12-23T04:06:01.753Z,47.55
2022-12-23T04:07:05.860Z,47.56
2022-12-23T04:08:09.946Z,47.5
2022-12-23T04:09:23.375Z,47.48
2022-12-23T04:10:27.448Z,47.34
2022-12-23T04:11:31.645Z,47.26
2022-12-23T04:12:35.754Z,47.32
2022-12-23T04:13:39.904Z,47.26
2022-12-23T04:14:44.004Z,47.3
2022-12-23T04:15:48.286Z,47.21
2022-12-23T04:16:52.435Z,47.2
2022-12-23T04:17:56.541Z,47.1
2022-12-23T04:19:00.651Z,47.04
2022-12-23T04:20:04.813Z,47.04
2022-12-23T04:21:08.970Z,47.13
2022-12-23T04:22:13.085Z,47.02
2022-12-23T04:23:17.196Z,47.01
2022-12-23T04:24:21.305Z,47.01
2022-12-23T04:25:25.407Z,46.89
2022-12-23T04:26:29.522Z,46.78
2022-12-23T04:27:33.623Z,46.78
2022-12-23T04:28:37.750Z,46.73
2022-12-23T04:29:42.771Z,46.61
2022-12-23T04:30:46.887Z,46.66
2022-12-23T04:31:51.223Z,46.71
2022-12-23T04:32:55.390Z,46.65
2022-12-23T04:33:59.516Z,46.56
2022-12-23T04:35:03.667Z,46.54
2022-12-23T04:36:07.769Z,46.46
2022-12-23T04:37:11.875Z,46.55
2022-12-23T04:38:16.065Z,46.6
2022-12-23T04:39:20.247Z,46.59
2022-12-23T04:40:24.382Z,46.63
2022-12-23T04:41:28.510Z,46.64
2022-12-23T04:42:32.606Z,46.66
2022-12-23T04:43:36.722Z,46.77
2022-12-23T04:44:40.806Z,46.86
2022-12-23T04:45:44.906Z,47
2022-12-23T04:46:49.365Z,46.94
2022-12-23T04:47:53.539Z,46.99
2022-12-23T04:48:57.675Z,47.01
2022-12-23T04:50:01.781Z,46.96
2022-12-23T04:51:05.905Z,46.94
2022-12-23T04:52:10.222Z,46.91
2022-12-23T04:53:14.411Z,46.92
2022-12-23T04:54:18.540Z,46.88
2022-12-23T04:55:22.637Z,46.77
2022-12-23T04:56:26.739Z,46.83
2022-12-23T04:57:30.843Z,46.79
2022-12-23T04:58:34.941Z,46.64
2022-12-23T04:59:39.048Z,46.55
2022-12-23T05:00:43.356Z,46.56
2022-12-23T05:01:48.182Z,46.54
2022-12-23T05:02:52.958Z,46.51
2022-12-23T05:03:57.248Z,46.51
2022-12-23T05:05:01.475Z,46.4
2022-12-23T05:06:05.592Z,46.35
2022-12-23T05:07:09.687Z,46.34
2022-12-23T05:08:13.792Z,46.26
2022-12-23T05:09:17.906Z,46.25
2022-12-23T05:10:22.053Z,46.28
2022-12-23T05:11:26.187Z,46.32
2022-12-23T05:12:30.283Z,46.37
2022-12-23T05:13:34.408Z,46.44
2022-12-23T05:14:38.562Z,46.52
2022-12-23T05:15:42.686Z,46.44
2022-12-23T05:16:47.082Z,46.56
2022-12-23T05:17:51.280Z,46.56
2022-12-23T05:18:55.492Z,46.6
2022-12-23T05:19:59.636Z,46.68
2022-12-23T05:21:03.766Z,46.74
2022-12-23T05:22:07.874Z,46.83
2022-12-23T05:23:11.971Z,46.79
2022-12-23T05:24:16.103Z,46.77
2022-12-23T05:25:20.226Z,46.82
2022-12-23T05:26:24.429Z,46.79
2022-12-23T05:27:28.545Z,46.7
2022-12-23T05:28:32.649Z,46.65
2022-12-23T05:29:36.743Z,46.6
2022-12-23T05:30:40.877Z,46.58
2022-12-23T05:31:45.332Z,46.47
2022-12-23T05:32:49.533Z,46.47
2022-12-23T05:33:54.064Z,46.48
2022-12-23T05:34:58.254Z,46.46
2022-12-23T05:36:02.381Z,46.42
2022-12-23T05:37:06.513Z,46.47
2022-12-23T05:38:10.651Z,46.46
2022-12-23T05:39:14.761Z,46.37
2022-12-23T05:40:32.906Z,46.46
2022-12-23T05:41:38.183Z,46.53
2022-12-23T05:42:42.312Z,46.6
2022-12-23T05:43:46.508Z,46.64
2022-12-23T05:44:50.617Z,46.72
2022-12-23T05:45:55.000Z,46.69
2022-12-23T05:46:59.177Z,46.77
2022-12-23T05:48:03.302Z,46.76
2022-12-23T05:49:07.405Z,46.79
2022-12-23T05:50:11.523Z,46.85
2022-12-23T05:51:15.676Z,46.86
2022-12-23T05:52:19.822Z,46.88
2022-12-23T05:53:23.969Z,46.93
2022-12-23T05:54:28.066Z,46.98
2022-12-23T05:55:32.205Z,46.95
2022-12-23T05:56:37.221Z,46.95
2022-12-23T05:57:41.975Z,47.01
2022-12-23T05:58:46.149Z,47.01
2022-12-23T05:59:50.248Z,47.05
2022-12-23T06:00:54.345Z,47.06
2022-12-23T06:01:59.173Z,47.13
2022-12-23T06:03:04.130Z,47.19
2022-12-23T06:04:09.146Z,47.13
2022-12-23T06:05:13.331Z,47.18
2022-12-23T06:06:17.451Z,47.18
2022-12-23T06:07:21.585Z,47.22
2022-12-23T06:08:25.736Z,47.28
2022-12-23T06:09:29.843Z,47.25
2022-12-23T06:10:34.051Z,47.29
2022-12-23T06:11:38.153Z,47.28
2022-12-23T06:12:42.273Z,47.32
2022-12-23T06:13:46.377Z,47.34
2022-12-23T06:14:50.497Z,47.35
2022-12-23T06:15:54.615Z,47.38
2022-12-23T06:16:59.035Z,47.41
2022-12-23T06:18:03.191Z,47.41
2022-12-23T06:19:07.332Z,47.44
2022-12-23T06:20:22.005Z,47.47
2022-12-23T06:21:26.105Z,47.5
2022-12-23T06:22:30.198Z,47.47
2022-12-23T06:23:34.370Z,47.49
2022-12-23T06:24:38.485Z,47.52
2022-12-23T06:25:42.603Z,47.56
2022-12-23T06:26:47.512Z,47.59
2022-12-23T06:27:52.884Z,47.58
2022-12-23T06:28:56.987Z,47.69
2022-12-23T06:30:01.109Z,47.67
2022-12-23T06:31:05.281Z,47.75
2022-12-23T06:32:09.632Z,47.78
2022-12-23T06:33:13.788Z,47.75
2022-12-23T06:34:17.955Z,47.73
2022-12-23T06:35:22.087Z,47.74
2022-12-23T06:36:26.236Z,47.78
2022-12-23T06:37:30.371Z,47.79
2022-12-23T06:38:34.481Z,47.8
2022-12-23T06:39:38.579Z,47.74
2022-12-23T06:40:42.725Z,47.76
2022-12-23T06:41:46.845Z,47.69
2022-12-23T06:42:50.972Z,47.69
2022-12-23T06:43:56.579Z,47.75
2022-12-23T06:45:00.723Z,47.78
2022-12-23T06:46:05.045Z,47.67
2022-12-23T06:47:09.220Z,47.6
2022-12-23T06:48:13.306Z,47.71
2022-12-23T06:49:17.446Z,47.64
2022-12-23T06:50:21.578Z,47.56
2022-12-23T06:51:25.679Z,47.67
2022-12-23T06:52:29.831Z,47.58
2022-12-23T06:53:33.908Z,47.52
2022-12-23T06:54:38.019Z,47.65
2022-12-23T06:55:42.155Z,47.54
2022-12-23T06:56:46.251Z,47.7
2022-12-23T06:57:50.379Z,47.58
2022-12-23T06:58:54.484Z,47.66
2022-12-23T06:59:58.646Z,47.52
2022-12-23T07:01:03.005Z,47.49
2022-12-23T07:02:07.800Z,47.66
2022-12-23T07:03:12.477Z,47.47
2022-12-23T07:04:16.736Z,47.53
2022-12-23T07:05:20.866Z,47.4
2022-12-23T07:06:25.048Z,47.3
2022-12-23T07:07:29.220Z,47.28
2022-12-23T07:08:33.340Z,47.32
2022-12-23T07:09:37.457Z,47.34
2022-12-23T07:10:41.573Z,47.41
2022-12-23T07:11:45.715Z,47.43
2022-12-23T07:12:52.977Z,47.36
2022-12-23T07:13:57.090Z,47.41
2022-12-23T07:15:01.321Z,47.3
2022-12-23T07:16:05.491Z,47.3
2022-12-23T07:17:09.981Z,47.28
2022-12-23T07:18:14.123Z,47.15
2022-12-23T07:19:18.265Z,47.16
2022-12-23T07:20:22.415Z,47.22
2022-12-23T07:21:31.571Z,47.26
2022-12-23T07:22:35.680Z,47.23
2022-12-23T07:23:40.597Z,47.23
2022-12-23T07:24:44.705Z,47.31
2022-12-23T07:25:48.812Z,47.31
2022-12-23T07:26:52.910Z,47.47
2022-12-23T07:27:57.062Z,47.63
2022-12-23T07:29:01.172Z,47.56
2022-12-23T07:30:05.357Z,47.41
2022-12-23T07:31:09.612Z,47.87
2022-12-23T07:32:14.044Z,47.36
2022-12-23T07:33:18.160Z,47.41
2022-12-23T07:34:22.269Z,47.57
2022-12-23T07:35:26.404Z,47.52
2022-12-23T07:36:30.544Z,47.57
2022-12-23T07:37:34.648Z,47.5
2022-12-23T07:38:38.751Z,47.51
2022-12-23T07:39:42.892Z,47.53
2022-12-23T07:40:47.066Z,47.74
2022-12-23T07:44:00.210Z,47.9
2022-12-23T07:45:04.306Z,47.78
2022-12-23T07:46:08.781Z,47.85
2022-12-23T07:47:12.933Z,47.74
2022-12-23T07:48:17.074Z,47.79
2022-12-23T07:49:21.192Z,47.88
2022-12-23T07:50:25.298Z,47.86
2022-12-23T07:51:29.536Z,47.79
2022-12-23T07:52:33.675Z,47.82
2022-12-23T07:53:37.845Z,47.78
2022-12-23T07:54:41.941Z,47.87
2022-12-23T07:55:48.081Z,47.85
2022-12-23T07:56:54.243Z,48
2022-12-23T07:57:58.945Z,48.01
2022-12-23T07:59:03.031Z,48.03
2022-12-23T08:00:07.118Z,47.89
2022-12-23T08:01:11.418Z,47.95
2022-12-23T08:02:16.228Z,48.04
2022-12-23T08:03:20.991Z,48.02
2022-12-23T08:04:25.376Z,48.23
2022-12-23T08:05:29.779Z,48.05
2022-12-23T08:06:33.939Z,47.84
2022-12-23T08:07:38.110Z,47.93
2022-12-23T08:08:42.200Z,47.97
2022-12-23T08:09:46.325Z,47.87
2022-12-23T08:10:50.665Z,48.06
2022-12-23T08:11:54.759Z,47.96
2022-12-23T08:12:58.861Z,47.99
2022-12-23T08:14:05.052Z,48.06
2022-12-23T08:15:09.148Z,48.08
2022-12-23T08:16:13.533Z,48.07
2022-12-23T08:17:17.934Z,48.07
2022-12-23T08:18:22.088Z,47.99
2022-12-23T08:19:26.222Z,47.95
2022-12-23T08:20:30.505Z,48.13
2022-12-23T08:21:34.613Z,48.04
2022-12-23T08:22:38.765Z,47.92
2022-12-23T08:23:42.880Z,47.98
2022-12-23T08:24:47.047Z,47.96
2022-12-23T08:25:51.141Z,48
2022-12-23T08:26:55.245Z,47.9
2022-12-23T08:27:59.368Z,47.96
2022-12-23T08:29:03.528Z,47.97
2022-12-23T08:30:07.692Z,47.99
2022-12-23T08:31:12.102Z,48.06
2022-12-23T08:32:16.282Z,48.01
2022-12-23T08:33:20.448Z,47.94
2022-12-23T08:34:24.605Z,47.98
2022-12-23T08:35:28.700Z,48.01
2022-12-23T08:36:32.823Z,48.01
2022-12-23T08:37:36.915Z,47.95
2022-12-23T08:38:41.060Z,47.94
2022-12-23T08:39:45.899Z,47.99
2022-12-23T08:40:50.086Z,47.98
2022-12-23T08:41:54.226Z,48.1
2022-12-23T08:42:58.312Z,47.95
2022-12-23T08:44:02.452Z,48.09
2022-12-23T08:45:06.597Z,48.01
2022-12-23T08:46:10.860Z,48.16
2022-12-23T08:47:15.055Z,48.02
2022-12-23T08:48:19.166Z,48.27
2022-12-23T08:49:23.301Z,48.1
2022-12-23T08:50:27.484Z,48.07
2022-12-23T08:51:31.591Z,48.01
2022-12-23T08:52:35.770Z,48.03
2022-12-23T08:53:40.582Z,48.07
2022-12-23T08:54:45.246Z,48.14
2022-12-23T08:55:49.370Z,47.98
2022-12-23T08:56:53.526Z,48
2022-12-23T08:57:57.617Z,48.07
2022-12-23T08:59:01.724Z,48.07
2022-12-23T09:00:05.859Z,47.97
2022-12-23T09:01:10.111Z,48.32
2022-12-23T09:02:14.993Z,48.34
2022-12-23T09:03:19.694Z,48.15
2022-12-23T09:04:23.946Z,48.39
2022-12-23T09:05:28.067Z,48.3
2022-12-23T09:06:32.583Z,48.11
2022-12-23T09:07:36.701Z,48.17
2022-12-23T09:08:40.908Z,48.15
2022-12-23T09:09:45.009Z,48.06
2022-12-23T09:10:49.105Z,48.07
2022-12-23T09:11:53.220Z,48.09
2022-12-23T09:13:00.045Z,48.02
2022-12-23T09:14:04.257Z,48.04
2022-12-23T09:15:08.406Z,48.42
2022-12-23T09:16:12.813Z,48.19
2022-12-23T09:17:16.973Z,48.1
2022-12-23T09:18:21.166Z,48
2022-12-23T09:19:25.281Z,48.18
2022-12-23T09:20:29.397Z,48.14
2022-12-23T09:21:33.600Z,48.24
2022-12-23T09:22:37.774Z,48.1
2022-12-23T09:23:41.902Z,48.12
2022-12-23T09:24:46.007Z,48.31
2022-12-23T09:25:50.107Z,48.5
2022-12-23T09:26:54.216Z,48.29
2022-12-23T09:27:59.502Z,48.17
2022-12-23T09:29:03.637Z,48.01
2022-12-23T09:30:07.762Z,47.81
2022-12-23T09:31:12.299Z,48.37
2022-12-23T09:32:16.506Z,48.51
2022-12-23T09:33:20.644Z,48.13
2022-12-23T09:34:24.760Z,48.3
2022-12-23T09:35:28.887Z,48.23
2022-12-23T09:36:33.023Z,48.23
2022-12-23T09:37:37.149Z,48.29
2022-12-23T09:38:41.271Z,48.03
2022-12-23T09:39:45.697Z,48.34
2022-12-23T09:40:49.997Z,48.19
2022-12-23T09:41:54.126Z,48.46
2022-12-23T09:42:58.254Z,48.38
2022-12-23T09:44:02.392Z,48.57
2022-12-23T09:45:06.642Z,48.4
2022-12-23T09:46:10.861Z,48.33
2022-12-23T09:47:15.012Z,48.41
2022-12-23T09:48:19.148Z,48.57
2022-12-23T09:49:23.313Z,48.83
2022-12-23T09:50:27.431Z,49.01
2022-12-23T09:51:31.575Z,48.49
2022-12-23T09:52:35.709Z,48.74
2022-12-23T09:53:39.830Z,48.92
2022-12-23T09:54:43.940Z,48.5
2022-12-23T09:55:48.827Z,48.75
2022-12-23T09:56:52.973Z,49
2022-12-23T09:57:57.091Z,48.97
2022-12-23T09:59:01.212Z,48.56
2022-12-23T10:00:05.383Z,48.5
2022-12-23T10:01:09.484Z,48.77
2022-12-23T10:02:14.165Z,48.59
2022-12-23T10:03:19.113Z,48.73
2022-12-23T10:04:23.725Z,48.75
2022-12-23T10:05:27.929Z,48.9
2022-12-23T10:06:32.046Z,48.63
2022-12-23T10:07:36.196Z,48.85
2022-12-23T10:08:40.293Z,48.94
2022-12-23T10:09:44.430Z,48.71
2022-12-23T10:10:48.747Z,48.6
2022-12-23T10:11:52.877Z,48.54
2022-12-23T10:12:56.975Z,48.76
2022-12-23T10:14:01.124Z,48.94
2022-12-23T10:15:05.327Z,49
2022-12-23T10:16:09.723Z,49.04
2022-12-23T10:17:13.937Z,48.54
2022-12-23T10:18:18.078Z,48.77
2022-12-23T10:19:22.293Z,48.82
2022-12-23T10:20:26.450Z,48.5
2022-12-23T10:21:30.557Z,48.48
2022-12-23T10:22:34.666Z,48.86
2022-12-23T10:23:38.889Z,48.83
2022-12-23T10:24:43.045Z,49.16
2022-12-23T10:25:47.143Z,49.04
2022-12-23T10:26:51.279Z,48.66
2022-12-23T10:27:55.381Z,48.36
2022-12-23T10:28:59.504Z,47.17
2022-12-23T10:31:23.672Z,46.66
2022-12-23T10:32:35.563Z,46.9
2022-12-23T10:33:39.755Z,46.74
2022-12-23T10:34:43.854Z,46.65
2022-12-23T10:35:47.947Z,46.93
2022-12-23T10:36:53.247Z,46.72
2022-12-23T10:37:57.375Z,46.88
2022-12-23T10:39:01.481Z,46.86
2022-12-23T10:40:05.601Z,46.63
2022-12-23T10:41:11.702Z,46.36
2022-12-23T10:42:15.857Z,46.54
2022-12-23T10:43:19.966Z,46.3
2022-12-23T10:44:24.077Z,46.13
2022-12-23T10:45:28.222Z,46.4
2022-12-23T10:46:32.469Z,46.18
2022-12-23T10:47:36.624Z,46.39
2022-12-23T10:48:40.983Z,46.27
2022-12-23T10:49:45.352Z,46.27
2022-12-23T10:50:49.855Z,46.09
2022-12-23T10:51:54.128Z,46.19
2022-12-23T10:52:58.230Z,46.09
2022-12-23T10:54:02.388Z,46.18
2022-12-23T10:55:06.494Z,46.31
2022-12-23T10:56:10.662Z,46.28
2022-12-23T10:57:14.802Z,46.22
2022-12-23T10:58:18.888Z,45.97
2022-12-23T10:59:23.015Z,46.18
2022-12-23T11:00:27.299Z,45.89
2022-12-23T11:01:32.180Z,45.83
2022-12-23T11:02:37.246Z,46.08
2022-12-23T11:03:41.789Z,45.89
2022-12-23T11:04:45.925Z,45.94
2022-12-23T11:05:50.018Z,45.93
2022-12-23T11:07:46.158Z,45.95
2022-12-23T11:08:50.507Z,45.9
2022-12-23T11:09:54.657Z,45.89
2022-12-23T11:10:58.788Z,45.64
2022-12-23T11:12:02.984Z,45.75
2022-12-23T11:13:07.222Z,45.95
2022-12-23T11:14:11.385Z,45.68
2022-12-23T11:15:15.530Z,45.81
2022-12-23T11:16:19.977Z,45.63
2022-12-23T11:17:24.166Z,45.39
2022-12-23T11:18:28.289Z,45.65
2022-12-23T11:19:32.433Z,45.18
2022-12-23T11:20:36.600Z,45.11
2022-12-23T11:21:40.701Z,44.96
2022-12-23T11:22:45.337Z,44.87
2022-12-23T11:23:50.010Z,44.78
2022-12-23T11:24:54.315Z,44.83
2022-12-23T11:25:58.445Z,44.8
2022-12-23T11:27:02.575Z,44.91
2022-12-23T11:28:06.682Z,44.86
2022-12-23T11:29:10.800Z,44.84
2022-12-23T11:30:15.028Z,44.83
2022-12-23T11:31:19.348Z,44.75
2022-12-23T11:32:23.514Z,44.9
2022-12-23T11:33:27.695Z,44.84
2022-12-23T11:34:31.834Z,44.8
2022-12-23T11:35:36.127Z,44.79
2022-12-23T11:36:40.782Z,44.81
2022-12-23T11:37:45.410Z,44.75
2022-12-23T11:38:50.037Z,44.75
2022-12-23T11:39:54.263Z,44.78
2022-12-23T11:40:58.406Z,44.82
2022-12-23T11:42:02.528Z,44.85
2022-12-23T11:43:06.637Z,44.9
2022-12-23T11:44:10.791Z,44.96
2022-12-23T11:45:14.886Z,44.99
2022-12-23T11:46:19.439Z,45.03
2022-12-23T11:47:23.635Z,45.06
2022-12-23T11:48:27.749Z,45.06
2022-12-23T11:49:31.868Z,45.09
2022-12-23T11:50:35.983Z,45.12
2022-12-23T11:51:40.925Z,45.16
2022-12-23T11:52:45.298Z,45.14
2022-12-23T11:53:49.967Z,45.06
2022-12-23T11:54:56.751Z,45.06
2022-12-23T11:56:00.893Z,44.97
2022-12-23T11:57:05.245Z,44.87
2022-12-23T11:58:09.389Z,44.79
2022-12-23T11:59:13.524Z,44.78
2022-12-23T12:00:17.670Z,44.69
2022-12-23T12:01:21.818Z,44.6
2022-12-23T12:02:26.351Z,44.55
2022-12-23T12:03:31.031Z,44.55
2022-12-23T12:04:35.207Z,44.55
2022-12-23T12:05:39.333Z,44.56
2022-12-23T12:06:43.457Z,44.58
2022-12-23T12:07:47.593Z,44.6
2022-12-23T12:08:51.698Z,44.63
2022-12-23T12:09:55.885Z,44.69
2022-12-23T12:11:00.152Z,44.74
2022-12-23T12:12:04.267Z,44.76
2022-12-23T12:13:08.395Z,44.8
2022-12-23T12:14:12.510Z,44.83
2022-12-23T12:15:16.713Z,44.87
2022-12-23T12:16:20.999Z,44.86
2022-12-23T12:17:25.135Z,44.87
2022-12-23T12:18:29.242Z,44.84
2022-12-23T12:19:33.386Z,44.78
2022-12-23T12:20:37.504Z,44.71
2022-12-23T12:21:42.500Z,44.68
2022-12-23T12:22:46.632Z,44.63
2022-12-23T12:24:17.554Z,44.57
2022-12-23T12:25:22.061Z,44.53
2022-12-23T12:26:26.201Z,44.52
2022-12-23T12:27:30.319Z,44.54
2022-12-23T12:28:34.446Z,44.56
2022-12-23T12:29:38.572Z,44.56
2022-12-23T12:30:43.576Z,44.57
2022-12-23T12:31:47.719Z,44.59
2022-12-23T12:32:52.008Z,44.62
2022-12-23T12:33:56.555Z,44.61
2022-12-23T12:35:00.728Z,44.58
2022-12-23T12:36:07.671Z,44.63
2022-12-23T12:37:11.870Z,44.67
2022-12-23T12:38:15.993Z,44.68
2022-12-23T12:39:20.105Z,44.72
2022-12-23T12:40:24.229Z,44.74
2022-12-23T12:41:28.355Z,44.73
2022-12-23T12:42:32.436Z,44.73
2022-12-23T12:43:36.543Z,44.73
2022-12-23T12:44:41.027Z,44.71
2022-12-23T12:45:45.320Z,44.65
2022-12-23T12:46:49.960Z,44.64
2022-12-23T12:48:12.981Z,44.61
2022-12-23T12:49:20.124Z,44.61
2022-12-23T12:50:24.667Z,44.55
2022-12-23T12:51:28.779Z,44.65
2022-12-23T12:52:32.883Z,44.72
2022-12-23T12:53:36.994Z,44.82
2022-12-23T12:54:41.103Z,44.88
2022-12-23T12:55:45.559Z,44.9
2022-12-23T12:56:50.025Z,44.92
2022-12-23T12:57:54.339Z,45.03
2022-12-23T12:58:58.440Z,45.12
